Time;durP1;ratioP1;P1;durP2;ratioP2;P2;SDS_P1;SDS_P2;PMS_P1;PMS_P2;Temp;Humidity;BMP_temperature;BMP_pressure;BME280_temperature;BME280_humidity;BME280_pressure;Samples;Min_cycle;Max_cycle;Signal;HPM_P1;HPM_P2
2022/10/01 00:01:13;;;;;;;6.20;4.97;;;8.80;99.90;;;;;;4997071;28;20452;-54
2022/10/01 00:03:39;;;;;;;4.97;4.47;;;8.80;99.90;;;;;;4988568;28;20066;-52
2022/10/01 00:06:07;;;;;;;4.65;4.07;;;8.80;99.90;;;;;;4978081;28;20033;-53
2022/10/01 00:08:33;;;;;;;5.30;4.15;;;8.70;99.90;;;;;;4991240;28;20026;-52
2022/10/01 00:11:00;;;;;;;5.40;4.90;;;8.80;99.90;;;;;;4996941;28;20034;-50
2022/10/01 00:13:26;;;;;;;4.82;4.35;;;8.80;99.90;;;;;;4989953;28;20041;-53
2022/10/01 00:15:52;;;;;;;6.00;4.35;;;8.70;99.90;;;;;;4994942;28;20030;-51
2022/10/01 00:18:18;;;;;;;6.32;4.25;;;8.70;99.90;;;;;;5001882;28;20538;-54
2022/10/01 00:20:44;;;;;;;5.38;4.38;;;8.70;99.90;;;;;;4993475;28;20030;-52
2022/10/01 00:23:14;;;;;;;7.28;4.15;;;8.80;99.90;;;;;;4976633;28;20030;-51
2022/10/01 00:25:40;;;;;;;4.38;3.97;;;8.70;99.90;;;;;;4991612;28;20023;-51
2022/10/01 00:28:06;;;;;;;5.47;3.85;;;8.80;99.90;;;;;;4996084;28;20373;-50
2022/10/01 00:30:32;;;;;;;5.60;4.10;;;8.70;99.90;;;;;;4989603;28;20026;-53
2022/10/01 00:32:58;;;;;;;4.40;4.00;;;8.70;99.90;;;;;;4993932;28;20030;-51
2022/10/01 00:35:23;;;;;;;9.48;4.13;;;8.80;99.90;;;;;;5001383;28;20072;-51
2022/10/01 00:37:51;;;;;;;4.38;3.95;;;8.80;99.90;;;;;;4992599;28;20061;-50
2022/10/01 00:40:18;;;;;;;4.43;4.03;;;8.70;99.90;;;;;;4993475;28;20050;-54
2022/10/01 00:42:44;;;;;;;4.28;3.67;;;8.70;99.90;;;;;;4991513;28;20018;-51
2022/10/01 00:45:12;;;;;;;4.20;3.75;;;8.70;99.90;;;;;;4990692;28;20022;-50
2022/10/01 00:47:41;;;;;;;6.18;3.60;;;8.70;99.90;;;;;;4992568;28;20061;-51
2022/10/01 00:50:15;;;;;;;3.80;3.20;;;8.70;99.90;;;;;;4986526;28;20169;-51
2022/10/01 00:52:44;;;;;;;5.55;4.28;;;8.70;99.90;;;;;;4997981;28;20105;-51
2022/10/01 00:55:14;;;;;;;4.60;3.78;;;8.70;99.90;;;;;;5008655;28;20030;-53
2022/10/01 00:57:40;;;;;;;5.60;3.97;;;8.70;99.90;;;;;;5000017;28;20034;-50
2022/10/01 01:00:08;;;;;;;4.13;3.72;;;8.70;99.90;;;;;;4988976;28;20566;-53
2022/10/01 01:02:33;;;;;;;5.30;4.20;;;8.70;99.90;;;;;;4996707;28;20054;-51
2022/10/01 01:05:00;;;;;;;4.07;3.50;;;8.70;99.90;;;;;;4992878;28;20524;-52
2022/10/01 01:07:27;;;;;;;4.50;3.13;;;8.70;99.90;;;;;;4985593;28;20496;-51
2022/10/01 01:09:53;;;;;;;5.55;3.83;;;8.70;99.90;;;;;;5003367;28;20026;-53
2022/10/01 01:12:53;;;;;;;4.50;3.72;;;8.60;99.90;;;;;;4991914;28;20556;-51
2022/10/01 01:15:37;;;;;;;3.72;3.35;;;8.70;99.90;;;;;;4992173;28;20365;-52
2022/10/01 01:18:15;;;;;;;6.75;3.40;;;8.60;99.90;;;;;;4990332;28;20029;-50
2022/10/01 01:20:50;;;;;;;3.88;3.58;;;8.60;99.90;;;;;;4996866;28;20026;-52
2022/10/01 01:23:16;;;;;;;3.70;3.38;;;8.60;99.90;;;;;;4987483;28;20014;-52
2022/10/01 01:25:54;;;;;;;4.50;3.83;;;8.60;99.90;;;;;;4995516;28;20041;-50
2022/10/01 01:28:30;;;;;;;5.90;3.78;;;8.70;99.90;;;;;;4986609;28;20022;-52
2022/10/01 01:31:02;;;;;;;4.30;3.70;;;8.70;99.90;;;;;;4990997;28;20026;-51
2022/10/01 01:33:33;;;;;;;4.82;3.28;;;8.70;99.90;;;;;;4986603;28;20053;-55
2022/10/01 01:36:22;;;;;;;4.28;3.38;;;8.70;99.90;;;;;;4989217;28;20019;-53
2022/10/01 01:38:55;;;;;;;4.20;3.42;;;8.70;99.90;;;;;;5012469;23;20066;-48
2022/10/01 01:41:25;;;;;;;4.03;3.30;;;8.70;99.90;;;;;;4997723;28;20501;-47
2022/10/01 01:43:53;;;;;;;4.90;4.05;;;8.70;99.90;;;;;;5002666;28;20017;-48
2022/10/01 01:46:19;;;;;;;4.18;3.03;;;8.70;99.90;;;;;;4997303;28;20029;-48
2022/10/01 01:48:48;;;;;;;4.18;3.10;;;8.70;99.90;;;;;;5003021;28;20048;-46
2022/10/01 01:51:23;;;;;;;4.72;3.22;;;8.80;99.90;;;;;;5007668;28;20117;-47
2022/10/01 01:53:49;;;;;;;3.43;3.13;;;8.80;99.90;;;;;;5005551;28;20373;-50
2022/10/01 01:56:16;;;;;;;7.20;3.50;;;8.80;99.90;;;;;;5007710;28;20041;-49
2022/10/01 01:58:43;;;;;;;4.32;3.90;;;8.80;99.90;;;;;;5005856;28;20030;-49
2022/10/01 02:01:30;;;;;;;6.80;3.60;;;8.80;99.90;;;;;;5003917;28;20555;-46
2022/10/01 02:03:56;;;;;;;4.15;3.50;;;8.80;99.90;;;;;;5005892;28;20096;-50
2022/10/01 02:06:41;;;;;;;2.92;2.60;;;8.80;99.90;;;;;;5007904;28;20571;-47
2022/10/01 02:09:27;;;;;;;5.22;3.38;;;8.80;99.90;;;;;;5010430;28;20104;-48
2022/10/01 02:12:23;;;;;;;3.50;3.20;;;8.80;99.90;;;;;;5006711;28;20369;-50
2022/10/01 02:14:54;;;;;;;4.43;2.78;;;8.90;99.90;;;;;;5007271;28;20049;-48
2022/10/01 02:17:32;;;;;;;7.32;3.17;;;8.90;99.90;;;;;;5005630;28;20026;-48
2022/10/01 02:20:17;;;;;;;4.00;2.90;;;8.90;99.90;;;;;;5009450;28;20073;-48
2022/10/01 02:23:01;;;;;;;3.78;3.35;;;8.90;99.90;;;;;;5006609;28;20388;-52
2022/10/01 02:25:33;;;;;;;3.92;2.67;;;8.90;99.90;;;;;;5004127;28;20014;-47
2022/10/01 02:28:06;;;;;;;3.22;2.75;;;9.00;99.90;;;;;;5005143;28;20033;-46
2022/10/01 02:30:54;;;;;;;4.38;3.08;;;9.00;99.90;;;;;;5009651;28;20030;-47
2022/10/01 02:33:28;;;;;;;3.63;2.80;;;9.00;99.90;;;;;;4997615;28;20053;-48
2022/10/01 02:35:57;;;;;;;5.03;3.15;;;9.00;99.90;;;;;;5007538;28;20025;-48
2022/10/01 02:38:24;;;;;;;3.63;2.92;;;9.00;99.90;;;;;;5005047;28;20491;-47
2022/10/01 02:40:55;;;;;;;3.10;2.80;;;9.10;99.90;;;;;;5007433;28;20014;-50
2022/10/01 02:43:31;;;;;;;3.53;3.22;;;9.10;99.90;;;;;;5009980;28;20049;-47
2022/10/01 02:46:02;;;;;;;5.32;2.97;;;9.10;99.90;;;;;;5005696;28;20030;-48
2022/10/01 02:48:28;;;;;;;4.93;2.67;;;9.20;99.90;;;;;;5010161;28;20488;-46
2022/10/01 02:51:20;;;;;;;4.03;2.88;;;9.20;99.90;;;;;;5004348;28;20036;-49
2022/10/01 02:53:51;;;;;;;3.85;2.83;;;9.20;99.90;;;;;;5005527;28;20077;-46
2022/10/01 02:57:21;;;;;;;3.10;2.78;;;9.20;99.90;;;;;;5002561;28;20022;-45
2022/10/01 02:59:06;;;;;;;3.22;2.80;;;9.20;99.90;;;;;;5009468;28;20042;-48
2022/10/01 03:01:32;;;;;;;3.13;2.83;;;9.20;99.90;;;;;;5003329;28;20116;-47
2022/10/01 03:03:58;;;;;;;6.82;3.08;;;9.30;99.90;;;;;;5004768;28;20014;-47
2022/10/01 03:06:23;;;;;;;2.60;2.40;;;9.20;99.90;;;;;;5007119;28;20030;-48
2022/10/01 03:08:49;;;;;;;3.08;2.75;;;9.30;99.90;;;;;;5010085;28;20034;-51
2022/10/01 03:11:15;;;;;;;3.60;2.88;;;9.30;99.90;;;;;;5006848;28;20018;-48
2022/10/01 03:13:42;;;;;;;3.05;2.75;;;9.30;99.90;;;;;;5008859;28;20210;-46
2022/10/01 03:16:07;;;;;;;4.40;2.88;;;9.30;99.90;;;;;;5005741;28;20034;-49
2022/10/01 03:18:33;;;;;;;6.85;3.33;;;9.40;99.90;;;;;;5007942;28;20065;-49
2022/10/01 03:20:58;;;;;;;5.88;2.95;;;9.40;99.90;;;;;;5004474;28;20018;-46
2022/10/01 03:23:24;;;;;;;2.90;2.70;;;9.40;99.90;;;;;;5006821;28;20424;-46
2022/10/01 03:25:49;;;;;;;3.88;3.00;;;9.40;99.90;;;;;;5009355;28;20037;-48
2022/10/01 03:28:15;;;;;;;4.38;2.80;;;9.40;99.90;;;;;;4988488;28;20025;-46
2022/10/01 03:30:41;;;;;;;3.15;2.55;;;9.40;99.90;;;;;;5008276;28;20080;-46
2022/10/01 03:33:06;;;;;;;4.28;2.85;;;9.40;99.90;;;;;;4987500;28;20022;-47
2022/10/01 03:35:32;;;;;;;4.38;3.13;;;9.40;99.90;;;;;;5008294;28;20060;-47
2022/10/01 03:37:57;;;;;;;4.05;2.53;;;9.50;99.90;;;;;;5003853;28;20060;-48
2022/10/01 03:40:24;;;;;;;3.75;2.50;;;9.50;99.90;;;;;;5006981;28;20054;-46
2022/10/01 03:42:50;;;;;;;3.85;2.85;;;9.50;99.90;;;;;;5008914;28;20024;-48
2022/10/01 03:45:15;;;;;;;3.15;2.70;;;9.50;99.90;;;;;;5006159;28;20018;-46
2022/10/01 03:47:41;;;;;;;3.22;2.78;;;9.50;99.90;;;;;;5008179;28;20073;-47
2022/10/01 03:50:07;;;;;;;2.50;2.30;;;9.50;99.90;;;;;;4987865;28;20022;-46
2022/10/01 03:52:32;;;;;;;3.63;2.72;;;9.50;99.90;;;;;;5007451;28;20034;-48
2022/10/01 03:54:59;;;;;;;3.63;2.50;;;9.50;99.90;;;;;;5004228;28;20021;-49
2022/10/01 03:57:25;;;;;;;3.33;2.67;;;9.60;99.90;;;;;;5006348;28;20535;-48
2022/10/01 03:59:50;;;;;;;3.45;2.38;;;9.60;99.90;;;;;;5008916;28;20022;-49
2022/10/01 04:02:16;;;;;;;3.00;2.58;;;9.60;99.90;;;;;;5004023;28;20574;-48
2022/10/01 04:04:41;;;;;;;5.72;2.85;;;9.60;99.90;;;;;;5008137;28;20445;-47
2022/10/01 04:07:07;;;;;;;2.92;2.72;;;9.60;99.90;;;;;;5009564;28;20077;-45
2022/10/01 04:09:32;;;;;;;5.30;2.80;;;9.60;99.90;;;;;;5012650;28;20083;-46
2022/10/01 04:11:58;;;;;;;4.05;2.85;;;9.60;99.90;;;;;;5007981;28;20403;-49
2022/10/01 04:14:24;;;;;;;4.13;3.28;;;9.60;99.90;;;;;;5012625;28;20018;-47
2022/10/01 04:16:51;;;;;;;4.22;3.00;;;9.50;99.90;;;;;;5008211;28;20109;-45
2022/10/01 04:19:17;;;;;;;3.53;3.00;;;9.50;99.90;;;;;;5010960;28;20083;-46
2022/10/01 04:21:43;;;;;;;3.25;2.95;;;9.50;99.90;;;;;;5007469;28;20041;-45
2022/10/01 04:24:08;;;;;;;3.90;3.00;;;9.50;99.90;;;;;;5009975;28;20029;-46
2022/10/01 04:26:34;;;;;;;6.32;3.28;;;9.50;99.90;;;;;;5012834;28;20048;-46
2022/10/01 04:28:59;;;;;;;4.43;3.22;;;9.40;99.90;;;;;;5008339;28;20037;-49
2022/10/01 04:31:25;;;;;;;3.70;3.10;;;9.40;99.90;;;;;;5012557;28;20018;-46
2022/10/01 04:33:55;;;;;;;3.83;3.42;;;9.40;99.90;;;;;;4990489;28;20026;-46
2022/10/01 04:36:22;;;;;;;4.75;3.35;;;9.40;99.90;;;;;;5011557;28;20501;-49
2022/10/01 04:38:50;;;;;;;3.85;3.28;;;9.40;99.90;;;;;;5007100;28;20026;-46
2022/10/01 04:41:16;;;;;;;5.63;3.08;;;9.40;99.90;;;;;;5009568;28;20018;-47
2022/10/01 04:43:41;;;;;;;6.45;3.45;;;9.40;99.90;;;;;;5012387;28;20022;-46
2022/10/01 04:46:07;;;;;;;4.95;3.45;;;9.30;99.90;;;;;;5007636;28;20040;-49
2022/10/01 04:48:32;;;;;;;3.45;3.05;;;9.30;99.90;;;;;;4994400;28;20030;-46
2022/10/01 04:50:58;;;;;;;5.28;3.50;;;9.30;99.90;;;;;;5006902;28;20077;-47
2022/10/01 04:53:24;;;;;;;3.90;3.42;;;9.30;99.90;;;;;;5011204;28;20029;-46
2022/10/01 04:55:49;;;;;;;4.53;3.40;;;9.30;99.90;;;;;;5007012;28;20026;-48
2022/10/01 04:58:15;;;;;;;3.60;3.25;;;9.30;99.90;;;;;;5009146;28;20033;-46
2022/10/01 05:00:40;;;;;;;6.32;3.88;;;9.30;99.90;;;;;;5006825;28;20033;-47
2022/10/01 05:03:06;;;;;;;4.13;3.33;;;9.30;99.90;;;;;;5008411;28;20021;-46
2022/10/01 05:05:33;;;;;;;9.85;4.30;;;9.30;99.90;;;;;;5006975;28;20014;-48
2022/10/01 05:07:59;;;;;;;3.85;3.45;;;9.20;99.90;;;;;;5010994;28;20037;-46
2022/10/01 05:10:26;;;;;;;7.90;3.80;;;9.20;99.90;;;;;;5008170;28;20030;-47
2022/10/01 05:12:52;;;;;;;5.30;3.60;;;9.20;99.90;;;;;;5010086;28;20029;-47
2022/10/01 05:15:18;;;;;;;3.78;3.42;;;9.20;99.90;;;;;;5007634;28;20061;-46
2022/10/01 05:17:45;;;;;;;3.50;3.17;;;9.20;99.90;;;;;;5009640;28;20026;-46
2022/10/01 05:20:23;;;;;;;3.70;3.40;;;9.20;99.90;;;;;;5008677;28;20018;-47
2022/10/01 05:22:49;;;;;;;6.40;4.35;;;9.20;99.90;;;;;;5008392;28;20017;-46
2022/10/01 05:25:15;;;;;;;3.38;3.05;;;9.20;99.90;;;;;;5003724;28;20494;-47
2022/10/01 05:27:41;;;;;;;4.10;3.70;;;9.20;99.90;;;;;;5007978;28;20041;-47
2022/10/01 05:30:09;;;;;;;3.80;3.50;;;9.20;99.90;;;;;;5010309;28;20033;-49
2022/10/01 05:32:35;;;;;;;4.43;3.70;;;9.20;99.90;;;;;;5007046;28;20039;-46
2022/10/01 05:35:01;;;;;;;4.30;3.90;;;9.20;99.90;;;;;;5009719;28;20133;-46
2022/10/01 05:37:26;;;;;;;8.60;3.63;;;9.20;99.90;;;;;;5007583;28;20530;-49
2022/10/01 05:39:52;;;;;;;4.80;3.55;;;9.20;99.90;;;;;;5010007;28;20030;-46
2022/10/01 05:42:20;;;;;;;6.18;4.00;;;9.20;99.90;;;;;;5011016;28;20026;-48
2022/10/01 05:44:46;;;;;;;5.03;3.55;;;9.20;99.90;;;;;;5009895;28;20030;-46
2022/10/01 05:47:12;;;;;;;4.93;3.63;;;9.20;99.90;;;;;;5006371;28;20037;-46
2022/10/01 05:49:43;;;;;;;3.92;3.25;;;9.20;99.90;;;;;;5008706;28;20053;-49
2022/10/01 05:52:10;;;;;;;5.72;4.22;;;9.20;99.90;;;;;;5005104;28;20022;-48
2022/10/01 05:54:36;;;;;;;4.85;3.70;;;9.20;99.90;;;;;;4990296;28;20029;-49
2022/10/01 05:57:02;;;;;;;4.18;3.78;;;9.20;99.90;;;;;;5010471;28;20045;-46
2022/10/01 05:59:27;;;;;;;3.92;3.60;;;9.20;99.90;;;;;;5007013;28;20060;-50
2022/10/01 06:01:53;;;;;;;4.78;3.35;;;9.20;99.90;;;;;;5002740;28;20354;-47
2022/10/01 06:04:18;;;;;;;5.00;3.90;;;9.20;99.90;;;;;;5005679;28;20424;-50
2022/10/01 06:06:44;;;;;;;3.90;3.58;;;9.20;99.90;;;;;;5007072;28;20537;-48
2022/10/01 06:09:09;;;;;;;4.75;3.53;;;9.20;99.90;;;;;;5010652;28;20025;-51
2022/10/01 06:11:36;;;;;;;5.25;3.65;;;9.20;99.90;;;;;;5007611;28;20112;-48
2022/10/01 06:14:01;;;;;;;4.20;3.80;;;9.20;99.90;;;;;;5010198;28;20032;-48
2022/10/01 06:16:27;;;;;;;4.20;3.80;;;9.20;99.90;;;;;;5006678;28;20379;-47
2022/10/01 06:18:56;;;;;;;5.13;3.97;;;9.10;99.90;;;;;;5008930;28;20103;-46
2022/10/01 06:21:22;;;;;;;4.25;3.85;;;9.20;99.90;;;;;;5005652;28;20014;-44
2022/10/01 06:23:49;;;;;;;3.83;3.50;;;9.20;99.90;;;;;;4990516;28;20033;-47
2022/10/01 06:26:15;;;;;;;4.65;3.97;;;9.20;99.90;;;;;;5002630;28;20041;-45
2022/10/01 06:28:40;;;;;;;4.28;3.83;;;9.20;99.90;;;;;;5007281;28;20399;-44
2022/10/01 06:31:06;;;;;;;3.83;3.50;;;9.20;99.90;;;;;;5009111;28;20109;-45
2022/10/01 06:33:32;;;;;;;5.03;3.80;;;9.20;99.90;;;;;;5006200;28;20743;-45
2022/10/01 06:35:57;;;;;;;6.32;4.25;;;9.20;99.90;;;;;;5008464;28;20057;-46
2022/10/01 06:38:24;;;;;;;5.28;3.95;;;9.20;99.90;;;;;;5005117;28;20076;-45
2022/10/01 06:40:59;;;;;;;5.15;3.63;;;9.20;99.90;;;;;;5007721;28;20022;-48
2022/10/01 06:43:27;;;;;;;4.53;4.05;;;9.20;99.90;;;;;;5003700;28;20021;-46
2022/10/01 06:45:53;;;;;;;5.47;4.05;;;9.30;99.90;;;;;;5006279;28;20117;-44
2022/10/01 06:48:20;;;;;;;5.43;4.30;;;9.20;99.90;;;;;;5009690;28;20109;-44
2022/10/01 06:50:47;;;;;;;4.90;3.70;;;9.30;99.90;;;;;;5006099;28;20034;-46
2022/10/01 06:53:16;;;;;;;4.95;3.75;;;9.30;99.90;;;;;;5008130;28;20108;-44
2022/10/01 06:55:42;;;;;;;4.68;3.65;;;9.30;99.90;;;;;;5005477;28;20029;-43
2022/10/01 06:58:22;;;;;;;9.18;3.70;;;9.30;99.90;;;;;;4989822;28;20036;-45
2022/10/01 07:00:48;;;;;;;5.72;3.92;;;9.30;99.90;;;;;;5003790;28;20105;-46
2022/10/01 07:03:20;;;;;;;6.32;3.33;;;9.30;99.90;;;;;;4998896;28;20019;-44
2022/10/01 07:05:47;;;;;;;4.82;3.97;;;9.30;99.90;;;;;;5007005;28;20022;-44
2022/10/01 07:08:13;;;;;;;8.82;4.25;;;9.30;99.90;;;;;;5009398;28;20548;-46
2022/10/01 07:10:39;;;;;;;5.45;3.97;;;9.30;99.90;;;;;;5006552;28;20132;-47
2022/10/01 07:13:11;;;;;;;6.95;5.25;;;9.30;99.90;;;;;;5008782;28;20037;-45
2022/10/01 07:15:37;;;;;;;7.15;5.05;;;9.30;99.90;;;;;;5005429;28;20026;-46
2022/10/01 07:18:03;;;;;;;6.00;4.78;;;9.30;99.90;;;;;;4990229;28;20579;-44
2022/10/01 07:20:32;;;;;;;4.75;4.03;;;9.30;99.90;;;;;;5004764;28;20022;-48
2022/10/01 07:22:58;;;;;;;4.55;4.15;;;9.30;99.90;;;;;;5006913;28;20022;-44
2022/10/01 07:25:25;;;;;;;5.65;4.45;;;9.30;99.90;;;;;;5009697;28;20640;-45
2022/10/01 07:27:59;;;;;;;4.45;4.03;;;9.30;99.90;;;;;;5006063;28;20417;-46
2022/10/01 07:30:25;;;;;;;5.20;3.33;;;9.40;99.90;;;;;;5008549;28;20094;-44
2022/10/01 07:32:51;;;;;;;4.85;3.63;;;9.30;99.90;;;;;;5005649;28;20038;-47
2022/10/01 07:35:19;;;;;;;4.03;3.50;;;9.40;99.90;;;;;;5008271;28;20400;-44
2022/10/01 07:37:46;;;;;;;4.05;3.65;;;9.40;99.90;;;;;;5006938;28;20031;-45
2022/10/01 07:40:11;;;;;;;3.47;3.17;;;9.30;99.90;;;;;;5058461;23;20042;-47
2022/10/01 07:42:37;;;;;;;5.68;4.10;;;9.40;99.90;;;;;;4992122;28;20160;-50
2022/10/01 07:45:05;;;;;;;5.13;3.88;;;9.40;99.90;;;;;;4993469;28;20017;-50
2022/10/01 07:47:31;;;;;;;3.53;3.28;;;9.30;99.90;;;;;;4979070;28;20104;-52
2022/10/01 07:49:57;;;;;;;3.60;3.30;;;9.40;99.90;;;;;;5004884;28;20026;-51
2022/10/01 07:52:23;;;;;;;4.32;3.28;;;9.40;99.90;;;;;;4993379;28;20022;-50
2022/10/01 07:54:48;;;;;;;3.65;3.35;;;9.40;99.90;;;;;;5007912;28;20486;-53
2022/10/01 07:57:14;;;;;;;4.07;3.67;;;9.40;99.90;;;;;;4992489;28;20026;-52
2022/10/01 07:59:39;;;;;;;3.80;3.42;;;9.50;99.90;;;;;;4994722;28;20028;-52
2022/10/01 08:02:14;;;;;;;4.07;3.50;;;9.50;99.90;;;;;;5006179;28;20026;-50
2022/10/01 08:07:24;;;;;;;9.43;4.30;;;9.50;99.90;;;;;;5011083;28;20056;-48
2022/10/01 08:09:49;;;;;;;5.25;3.90;;;9.50;99.90;;;;;;5012403;28;20520;-48
2022/10/01 08:12:16;;;;;;;6.55;3.75;;;9.50;99.90;;;;;;5008138;28;20399;-49
2022/10/01 08:14:42;;;;;;;4.25;3.85;;;9.50;99.90;;;;;;5012416;28;20499;-49
2022/10/01 08:17:08;;;;;;;6.43;3.40;;;9.50;99.90;;;;;;4988620;28;20037;-48
2022/10/01 08:19:35;;;;;;;4.47;3.50;;;9.50;99.90;;;;;;4994357;28;20025;-49
2022/10/01 08:22:00;;;;;;;3.50;3.20;;;9.50;99.90;;;;;;5006930;28;20056;-52
2022/10/01 08:24:26;;;;;;;4.00;3.60;;;9.50;99.90;;;;;;4994246;28;20021;-48
2022/10/01 08:26:54;;;;;;;6.80;4.80;;;9.50;99.90;;;;;;5011873;28;20063;-48
2022/10/01 08:29:21;;;;;;;3.95;3.38;;;9.60;99.90;;;;;;5009924;28;20037;-49
2022/10/01 08:31:46;;;;;;;4.95;3.22;;;9.60;99.90;;;;;;4992613;28;20480;-48
2022/10/01 08:34:12;;;;;;;5.72;3.45;;;9.60;99.90;;;;;;5008765;28;20035;-48
2022/10/01 08:36:38;;;;;;;5.10;4.13;;;9.60;99.90;;;;;;4989808;28;20124;-48
2022/10/01 08:39:03;;;;;;;4.05;3.55;;;9.60;99.90;;;;;;5011687;28;20159;-49
2022/10/01 08:41:42;;;;;;;3.72;3.42;;;9.60;99.90;;;;;;5008010;28;20473;-50
2022/10/01 08:44:17;;;;;;;6.90;5.03;;;9.70;99.90;;;;;;5010861;28;20018;-48
2022/10/01 08:46:44;;;;;;;10.13;6.30;;;9.70;99.90;;;;;;5007706;28;20029;-52
2022/10/01 08:49:24;;;;;;;3.05;2.67;;;9.80;99.90;;;;;;5009055;28;20493;-51
2022/10/01 08:52:16;;;;;;;2.65;2.40;;;9.80;99.90;;;;;;5006366;28;20029;-53
2022/10/01 08:54:47;;;;;;;3.53;2.58;;;9.80;99.90;;;;;;5008826;28;20068;-53
2022/10/01 08:57:16;;;;;;;2.65;2.45;;;9.80;99.90;;;;;;5011128;28;20026;-48
2022/10/01 08:59:47;;;;;;;2.58;2.30;;;9.80;99.90;;;;;;4990200;28;20515;-53
2022/10/01 09:02:24;;;;;;;3.03;2.75;;;9.80;99.90;;;;;;5003668;28;20025;-50
2022/10/01 09:04:56;;;;;;;2.97;2.05;;;9.80;99.90;;;;;;5006965;28;20270;-51
2022/10/01 09:08:03;;;;;;;4.85;2.13;;;9.90;99.90;;;;;;5009544;28;20080;-50
2022/10/01 09:10:42;;;;;;;2.08;1.88;;;9.90;99.90;;;;;;5004543;28;20476;-50
2022/10/01 09:13:43;;;;;;;2.65;2.05;;;9.90;99.90;;;;;;5010363;28;20433;-54
2022/10/01 09:16:30;;;;;;;2.22;2.03;;;9.90;99.90;;;;;;5006389;28;20026;-53
2022/10/01 09:18:59;;;;;;;5.65;5.15;;;10.00;99.90;;;;;;5009445;28;20033;-50
2022/10/01 09:21:52;;;;;;;2.75;2.55;;;10.00;99.90;;;;;;5006424;28;20018;-50
2022/10/01 09:24:42;;;;;;;2.88;2.00;;;10.00;99.90;;;;;;5009743;28;20140;-49
2022/10/01 09:27:15;;;;;;;1.90;1.80;;;10.10;99.90;;;;;;5009012;28;20026;-48
2022/10/01 09:29:55;;;;;;;3.72;2.13;;;10.10;99.90;;;;;;5005361;28;20290;-54
2022/10/01 09:32:45;;;;;;;2.13;1.83;;;10.10;99.90;;;;;;5001061;28;20018;-49
2022/10/01 09:35:34;;;;;;;3.22;2.33;;;10.10;99.90;;;;;;5008246;28;20519;-49
2022/10/01 09:38:11;;;;;;;5.20;3.10;;;10.20;99.90;;;;;;5010416;28;20118;-50
2022/10/01 09:40:50;;;;;;;4.78;4.38;;;10.20;99.90;;;;;;5008123;28;20038;-49
2022/10/01 09:43:22;;;;;;;3.83;3.47;;;10.20;99.90;;;;;;4997181;28;20020;-50
2022/10/01 09:45:51;;;;;;;3.47;3.20;;;10.20;99.90;;;;;;4990263;28;20022;-52
2022/10/01 09:48:21;;;;;;;6.13;4.82;;;10.30;99.90;;;;;;5009984;28;20113;-51
2022/10/01 09:50:57;;;;;;;4.22;3.92;;;10.30;99.90;;;;;;5006130;28;20033;-49
2022/10/01 09:53:29;;;;;;;4.40;4.10;;;10.40;99.90;;;;;;4991845;28;20080;-50
2022/10/01 09:55:58;;;;;;;3.83;3.50;;;10.40;99.90;;;;;;5004393;28;20049;-49
2022/10/01 09:58:27;;;;;;;4.20;3.80;;;10.40;99.90;;;;;;5008608;28;20036;-50
2022/10/01 10:00:53;;;;;;;5.35;4.85;;;10.50;99.90;;;;;;4985667;28;20076;-50
2022/10/01 10:03:27;;;;;;;7.00;5.93;;;10.50;99.90;;;;;;5006022;28;20022;-49
2022/10/01 10:05:53;;;;;;;6.07;5.47;;;10.50;99.90;;;;;;5004752;28;20030;-50
2022/10/01 10:08:27;;;;;;;7.07;5.75;;;10.60;99.90;;;;;;5009683;28;20041;-49
2022/10/01 10:10:59;;;;;;;5.35;4.90;;;10.70;99.90;;;;;;4988978;28;20026;-51
2022/10/01 10:13:54;;;;;;;6.18;5.63;;;10.80;99.90;;;;;;5009272;28;20030;-49
2022/10/01 10:16:30;;;;;;;6.72;6.13;;;10.90;99.90;;;;;;4984776;28;20022;-51
2022/10/01 10:19:09;;;;;;;6.75;6.15;;;11.00;99.90;;;;;;5009704;28;20488;-50
2022/10/01 10:21:34;;;;;;;10.70;6.72;;;11.10;99.90;;;;;;5004729;28;20030;-55
2022/10/01 10:24:03;;;;;;;7.47;6.75;;;11.10;99.90;;;;;;5007105;28;20068;-49
2022/10/01 10:26:30;;;;;;;8.68;7.30;;;11.20;99.90;;;;;;5009758;28;20105;-49
2022/10/01 10:28:57;;;;;;;7.50;6.80;;;11.20;99.90;;;;;;4987676;28;20359;-49
2022/10/01 10:31:26;;;;;;;7.65;6.95;;;11.30;99.90;;;;;;5009056;28;20076;-50
2022/10/01 10:34:21;;;;;;;7.53;6.60;;;11.30;99.90;;;;;;5005048;28;20038;-50
2022/10/01 10:36:47;;;;;;;9.02;6.55;;;11.30;99.90;;;;;;4988296;28;20045;-52
2022/10/01 10:39:29;;;;;;;8.55;6.60;;;11.40;99.90;;;;;;5001832;28;20022;-49
2022/10/01 10:41:56;;;;;;;6.95;6.35;;;11.40;99.90;;;;;;4991537;28;20030;-49
2022/10/01 10:44:25;;;;;;;8.82;6.88;;;11.50;99.90;;;;;;5005897;28;20023;-48
2022/10/01 10:46:52;;;;;;;7.65;6.88;;;11.50;99.90;;;;;;5008368;28;20033;-50
2022/10/01 10:49:30;;;;;;;8.75;7.25;;;11.70;99.90;;;;;;4987838;28;20493;-50
2022/10/01 10:51:57;;;;;;;8.98;7.20;;;11.90;99.90;;;;;;5004882;28;20034;-54
2022/10/01 10:54:36;;;;;;;11.80;7.63;;;12.00;99.90;;;;;;4987101;28;20477;-50
2022/10/01 10:57:28;;;;;;;7.78;7.07;;;12.10;99.90;;;;;;5005239;28;20032;-50
2022/10/01 11:00:00;;;;;;;8.32;7.53;;;12.20;99.90;;;;;;4993121;28;20084;-50
2022/10/01 11:02:31;;;;;;;10.25;6.90;;;12.20;99.90;;;;;;5002443;28;20252;-52
2022/10/01 11:05:26;;;;;;;7.88;7.13;;;12.30;99.90;;;;;;4985541;28;20088;-51
2022/10/01 11:07:59;;;;;;;8.77;6.55;;;12.40;99.90;;;;;;5005946;28;20032;-54
2022/10/01 11:10:24;;;;;;;7.32;6.65;;;12.50;99.90;;;;;;5006300;28;20022;-50
2022/10/01 11:13:18;;;;;;;7.75;6.88;;;12.70;99.90;;;;;;5010650;28;20121;-49
2022/10/01 11:15:49;;;;;;;11.52;6.65;;;12.70;99.90;;;;;;5008715;28;20100;-50
2022/10/01 11:18:32;;;;;;;6.47;5.75;;;12.90;99.90;;;;;;5005108;28;20101;-51
2022/10/01 11:21:09;;;;;;;9.00;6.78;;;13.00;99.90;;;;;;5007761;28;20325;-49
2022/10/01 11:23:50;;;;;;;6.65;6.03;;;13.20;99.90;;;;;;4992353;28;20021;-50
2022/10/01 11:26:29;;;;;;;7.82;5.00;;;13.20;99.90;;;;;;5004821;28;20017;-50
2022/10/01 11:29:04;;;;;;;6.70;5.45;;;13.30;99.90;;;;;;4991018;28;20493;-51
2022/10/01 11:31:45;;;;;;;9.68;5.30;;;13.40;99.90;;;;;;4988855;28;20033;-49
2022/10/01 11:34:26;;;;;;;6.35;4.43;;;13.50;99.90;;;;;;5007401;28;20057;-50
2022/10/01 11:37:00;;;;;;;7.60;4.57;;;13.50;99.90;;;;;;5012274;28;20526;-50
2022/10/01 11:39:27;;;;;;;7.90;4.32;;;13.50;99.90;;;;;;5006681;28;20492;-55
2022/10/01 11:42:23;;;;;;;9.63;3.97;;;13.60;99.90;;;;;;5012481;28;20034;-53
2022/10/01 11:45:01;;;;;;;5.30;3.17;;;13.70;99.90;;;;;;4985254;28;20026;-52
2022/10/01 11:47:35;;;;;;;5.18;2.78;;;13.70;99.90;;;;;;5011898;28;20018;-49
2022/10/01 11:50:07;;;;;;;5.53;3.20;;;13.80;99.90;;;;;;5008104;28;20026;-49
2022/10/01 11:52:47;;;;;;;5.60;2.97;;;13.80;99.90;;;;;;5011044;28;20022;-48
2022/10/01 11:58:51;;;;;;;7.68;2.78;;;14.00;99.90;;;;;;5010065;28;20392;-49
2022/10/01 12:01:23;;;;;;;6.60;2.35;;;14.00;99.90;;;;;;4982706;28;20495;-49
2022/10/01 12:03:51;;;;;;;7.40;2.63;;;14.10;99.90;;;;;;5006783;28;20484;-50
2022/10/01 12:06:22;;;;;;;7.13;2.45;;;14.20;99.90;;;;;;5004212;28;20025;-48
2022/10/01 12:09:12;;;;;;;4.40;2.20;;;14.30;99.90;;;;;;4994511;28;20110;-56
2022/10/01 12:11:56;;;;;;;2.58;1.50;;;14.40;99.90;;;;;;5008510;28;20032;-51
2022/10/01 12:14:30;;;;;;;6.28;2.55;;;14.40;99.90;;;;;;5005242;28;20492;-49
2022/10/01 12:17:03;;;;;;;6.85;2.08;;;14.30;99.90;;;;;;5007008;28;20505;-49
2022/10/01 12:19:37;;;;;;;6.25;2.22;;;14.30;99.90;;;;;;5006005;28;20033;-51
2022/10/01 12:22:15;;;;;;;5.88;2.17;;;14.40;99.90;;;;;;5004960;28;20076;-49
2022/10/01 12:24:44;;;;;;;7.90;1.95;;;14.50;99.90;;;;;;4990095;28;20112;-50
2022/10/01 12:27:25;;;;;;;4.45;2.13;;;14.60;99.90;;;;;;5009491;28;20014;-52
2022/10/01 12:30:04;;;;;;;7.05;2.13;;;14.60;99.90;;;;;;4990228;28;20029;-49
2022/10/01 12:33:00;;;;;;;3.60;1.52;;;14.70;99.90;;;;;;5007851;28;20057;-50
2022/10/01 12:35:51;;;;;;;5.03;2.03;;;14.70;99.90;;;;;;5009057;28;20010;-53
2022/10/01 12:38:45;;;;;;;8.98;2.13;;;14.90;99.90;;;;;;4989315;28;20046;-49
2022/10/01 12:41:33;;;;;;;7.30;2.53;;;15.00;99.90;;;;;;5008872;28;20042;-53
2022/10/01 12:44:04;;;;;;;4.05;1.30;;;15.10;99.90;;;;;;4993049;28;20467;-52
2022/10/01 12:46:49;;;;;;;4.20;1.90;;;15.10;99.90;;;;;;5009611;28;20097;-51
2022/10/01 12:49:33;;;;;;;5.63;1.92;;;15.10;99.90;;;;;;5002111;28;20546;-50
2022/10/01 12:52:10;;;;;;;6.15;1.48;;;15.20;99.90;;;;;;5007923;28;20061;-55
2022/10/01 12:55:05;;;;;;;3.75;1.30;;;15.20;99.90;;;;;;5006669;28;20035;-49
2022/10/01 12:57:42;;;;;;;6.55;1.98;;;15.20;99.90;;;;;;5004534;28;20375;-54
2022/10/01 13:00:39;;;;;;;6.68;1.75;;;15.20;99.90;;;;;;5010246;28;20022;-53
2022/10/01 13:03:11;;;;;;;;;;;15.10;99.90;;;;;;4984810;28;20041;-53
2022/10/01 13:05:48;;;;;;;3.10;1.48;;;15.00;99.90;;;;;;5007165;28;19909;-48
2022/10/01 13:08:16;;;;;;;6.53;1.85;;;14.90;99.90;;;;;;5011301;28;20083;-53
2022/10/01 13:10:56;;;;;;;5.22;1.98;;;14.90;99.90;;;;;;5007740;28;20052;-51
2022/10/01 13:13:34;;;;;;;6.82;1.58;;;14.90;99.90;;;;;;5002745;28;20058;-51
2022/10/01 13:16:02;;;;;;;4.25;1.05;;;14.90;99.90;;;;;;5006574;28;20030;-50
2022/10/01 13:18:55;;;;;;;4.95;0.98;;;14.70;99.90;;;;;;5011062;28;20096;-48
2022/10/01 13:21:34;;;;;;;5.63;1.20;;;14.50;99.90;;;;;;4988092;28;20118;-51
2022/10/01 13:24:03;;;;;;;5.55;1.08;;;14.30;99.90;;;;;;5008209;28;20026;-53